sensor_id;sensor_type;location;lat;lon;timestamp;temperature;humidity
70986;DHT22;58645;43.068;25.610;2023-04-15T00:00:14;13.10;99.90
70986;DHT22;58645;43.068;25.610;2023-04-15T00:02:40;13.10;99.90
70986;DHT22;58645;43.068;25.610;2023-04-15T00:05:06;13.10;99.90
70986;DHT22;58645;43.068;25.610;2023-04-15T00:07:32;13.10;99.90
70986;DHT22;58645;43.068;25.610;2023-04-15T00:09:58;13.10;99.90
70986;DHT22;58645;43.068;25.610;2023-04-15T00:12:25;13.10;99.90
70986;DHT22;58645;43.068;25.610;2023-04-15T00:14:51;13.10;99.90
70986;DHT22;58645;43.068;25.610;2023-04-15T00:17:17;13.10;99.90
70986;DHT22;58645;43.068;25.610;2023-04-15T00:19:43;13.10;99.90
70986;DHT22;58645;43.068;25.610;2023-04-15T00:22:10;13.20;99.90
70986;DHT22;58645;43.068;25.610;2023-04-15T00:24:37;13.10;99.90
70986;DHT22;58645;43.068;25.610;2023-04-15T00:27:03;13.10;99.90
70986;DHT22;58645;43.068;25.610;2023-04-15T00:29:29;13.10;99.90
70986;DHT22;58645;43.068;25.610;2023-04-15T00:31:55;13.00;99.90
70986;DHT22;58645;43.068;25.610;2023-04-15T00:34:21;13.00;99.90
70986;DHT22;58645;43.068;25.610;2023-04-15T00:36:47;13.00;99.90
70986;DHT22;58645;43.068;25.610;2023-04-15T00:39:13;13.00;99.90
70986;DHT22;58645;43.068;25.610;2023-04-15T00:41:41;13.10;99.90
70986;DHT22;58645;43.068;25.610;2023-04-15T00:44:07;13.10;99.90
70986;DHT22;58645;43.068;25.610;2023-04-15T00:46:35;13.10;99.90
70986;DHT22;58645;43.068;25.610;2023-04-15T00:49:03;13.10;99.90
70986;DHT22;58645;43.068;25.610;2023-04-15T00:51:30;13.10;99.90
70986;DHT22;58645;43.068;25.610;2023-04-15T00:53:58;13.10;99.90
70986;DHT22;58645;43.068;25.610;2023-04-15T00:56:24;13.10;99.90
70986;DHT22;58645;43.068;25.610;2023-04-15T00:58:50;13.10;99.90
70986;DHT22;58645;43.068;25.610;2023-04-15T01:01:23;13.10;99.90
70986;DHT22;58645;43.068;25.610;2023-04-15T01:03:50;13.10;99.90
70986;DHT22;58645;43.068;25.610;2023-04-15T01:06:17;13.20;99.90
70986;DHT22;58645;43.068;25.610;2023-04-15T01:08:43;13.20;99.90
70986;DHT22;58645;43.068;25.610;2023-04-15T01:11:11;13.20;99.90
70986;DHT22;58645;43.068;25.610;2023-04-15T01:13:37;13.20;99.90
70986;DHT22;58645;43.068;25.610;2023-04-15T01:16:03;13.20;99.90
70986;DHT22;58645;43.068;25.610;2023-04-15T01:18:29;13.20;99.90
70986;DHT22;58645;43.068;25.610;2023-04-15T01:20:56;13.10;99.90
70986;DHT22;58645;43.068;25.610;2023-04-15T01:23:22;13.00;99.90
70986;DHT22;58645;43.068;25.610;2023-04-15T01:25:49;12.90;99.90
70986;DHT22;58645;43.068;25.610;2023-04-15T01:28:16;12.80;99.90
70986;DHT22;58645;43.068;25.610;2023-04-15T01:30:41;12.70;99.90
70986;DHT22;58645;43.068;25.610;2023-04-15T01:33:07;12.70;99.90
70986;DHT22;58645;43.068;25.610;2023-04-15T01:35:33;12.70;99.90
70986;DHT22;58645;43.068;25.610;2023-04-15T01:38:06;12.70;99.90
70986;DHT22;58645;43.068;25.610;2023-04-15T01:40:33;12.70;99.90
70986;DHT22;58645;43.068;25.610;2023-04-15T01:43:02;12.70;99.90
70986;DHT22;58645;43.068;25.610;2023-04-15T01:45:28;12.60;99.90
70986;DHT22;58645;43.068;25.610;2023-04-15T01:47:54;12.50;99.90
70986;DHT22;58645;43.068;25.610;2023-04-15T01:50:20;12.40;99.90
70986;DHT22;58645;43.068;25.610;2023-04-15T01:52:46;12.40;99.90
70986;DHT22;58645;43.068;25.610;2023-04-15T01:55:12;12.30;99.90
70986;DHT22;58645;43.068;25.610;2023-04-15T01:57:39;12.30;99.90
70986;DHT22;58645;43.068;25.610;2023-04-15T02:00:05;12.30;99.90
70986;DHT22;58645;43.068;25.610;2023-04-15T02:02:32;12.20;99.90
70986;DHT22;58645;43.068;25.610;2023-04-15T02:04:58;12.20;99.90
70986;DHT22;58645;43.068;25.610;2023-04-15T02:07:24;12.20;99.90
70986;DHT22;58645;43.068;25.610;2023-04-15T02:09:50;12.20;99.90
70986;DHT22;58645;43.068;25.610;2023-04-15T02:12:16;12.20;99.90
70986;DHT22;58645;43.068;25.610;2023-04-15T02:14:41;12.20;99.90
70986;DHT22;58645;43.068;25.610;2023-04-15T02:17:07;12.20;99.90
70986;DHT22;58645;43.068;25.610;2023-04-15T02:19:34;12.20;99.90
70986;DHT22;58645;43.068;25.610;2023-04-15T02:22:00;12.20;99.90
70986;DHT22;58645;43.068;25.610;2023-04-15T02:24:27;12.30;99.90
70986;DHT22;58645;43.068;25.610;2023-04-15T02:26:53;12.20;99.90
70986;DHT22;58645;43.068;25.610;2023-04-15T02:29:19;12.20;99.90
70986;DHT22;58645;43.068;25.610;2023-04-15T02:31:45;12.20;99.90
70986;DHT22;58645;43.068;25.610;2023-04-15T02:34:10;12.00;99.90
70986;DHT22;58645;43.068;25.610;2023-04-15T02:36:36;12.00;99.90
70986;DHT22;58645;43.068;25.610;2023-04-15T02:39:02;11.90;99.90
70986;DHT22;58645;43.068;25.610;2023-04-15T02:41:28;11.90;99.90
70986;DHT22;58645;43.068;25.610;2023-04-15T02:43:54;11.90;99.90
70986;DHT22;58645;43.068;25.610;2023-04-15T02:46:21;11.80;99.90
70986;DHT22;58645;43.068;25.610;2023-04-15T02:48:48;11.80;99.90
70986;DHT22;58645;43.068;25.610;2023-04-15T02:51:19;11.80;99.90
70986;DHT22;58645;43.068;25.610;2023-04-15T02:53:45;11.80;99.90
70986;DHT22;58645;43.068;25.610;2023-04-15T02:56:11;11.80;99.90
70986;DHT22;58645;43.068;25.610;2023-04-15T02:58:39;11.80;99.90
70986;DHT22;58645;43.068;25.610;2023-04-15T03:01:05;11.80;99.90
70986;DHT22;58645;43.068;25.610;2023-04-15T03:03:32;11.80;99.90
70986;DHT22;58645;43.068;25.610;2023-04-15T03:05:57;11.80;99.90
70986;DHT22;58645;43.068;25.610;2023-04-15T03:08:23;11.80;99.90
70986;DHT22;58645;43.068;25.610;2023-04-15T03:10:49;11.80;99.90
70986;DHT22;58645;43.068;25.610;2023-04-15T03:13:17;11.90;99.90
70986;DHT22;58645;43.068;25.610;2023-04-15T03:15:47;11.90;99.90
70986;DHT22;58645;43.068;25.610;2023-04-15T03:18:13;12.00;99.90
70986;DHT22;58645;43.068;25.610;2023-04-15T03:20:39;11.90;99.90
70986;DHT22;58645;43.068;25.610;2023-04-15T03:23:05;11.90;99.90
70986;DHT22;58645;43.068;25.610;2023-04-15T03:25:30;11.90;99.90
70986;DHT22;58645;43.068;25.610;2023-04-15T03:27:56;11.90;99.90
70986;DHT22;58645;43.068;25.610;2023-04-15T03:30:22;11.90;99.90
70986;DHT22;58645;43.068;25.610;2023-04-15T03:32:48;11.90;99.90
70986;DHT22;58645;43.068;25.610;2023-04-15T03:35:14;11.90;99.90
70986;DHT22;58645;43.068;25.610;2023-04-15T03:37:40;11.90;99.90
70986;DHT22;58645;43.068;25.610;2023-04-15T03:40:06;11.90;99.90
70986;DHT22;58645;43.068;25.610;2023-04-15T03:42:32;11.90;99.90
70986;DHT22;58645;43.068;25.610;2023-04-15T03:44:58;11.90;99.90
70986;DHT22;58645;43.068;25.610;2023-04-15T03:47:23;11.80;99.90
70986;DHT22;58645;43.068;25.610;2023-04-15T03:49:49;11.60;99.90
70986;DHT22;58645;43.068;25.610;2023-04-15T03:52:15;11.50;99.90
70986;DHT22;58645;43.068;25.610;2023-04-15T03:54:41;11.30;99.90
70986;DHT22;58645;43.068;25.610;2023-04-15T03:57:06;11.00;99.90
70986;DHT22;58645;43.068;25.610;2023-04-15T03:59:32;11.00;99.90
70986;DHT22;58645;43.068;25.610;2023-04-15T04:01:58;10.90;99.90
70986;DHT22;58645;43.068;25.610;2023-04-15T04:04:23;10.90;99.90
70986;DHT22;58645;43.068;25.610;2023-04-15T04:06:49;11.00;99.90
70986;DHT22;58645;43.068;25.610;2023-04-15T04:09:15;11.00;99.90
70986;DHT22;58645;43.068;25.610;2023-04-15T04:11:41;11.00;99.90
70986;DHT22;58645;43.068;25.610;2023-04-15T04:14:06;11.10;99.90
70986;DHT22;58645;43.068;25.610;2023-04-15T04:16:32;11.10;99.90
70986;DHT22;58645;43.068;25.610;2023-04-15T04:18:58;11.20;99.90
70986;DHT22;58645;43.068;25.610;2023-04-15T04:21:23;11.20;99.90
70986;DHT22;58645;43.068;25.610;2023-04-15T04:23:49;11.20;99.90
70986;DHT22;58645;43.068;25.610;2023-04-15T04:26:15;11.20;99.90
70986;DHT22;58645;43.068;25.610;2023-04-15T04:28:41;11.30;99.90
70986;DHT22;58645;43.068;25.610;2023-04-15T04:31:06;11.30;99.90
70986;DHT22;58645;43.068;25.610;2023-04-15T04:33:33;11.40;99.90
70986;DHT22;58645;43.068;25.610;2023-04-15T04:35:58;11.50;99.90
70986;DHT22;58645;43.068;25.610;2023-04-15T04:38:24;11.60;99.90
70986;DHT22;58645;43.068;25.610;2023-04-15T04:40:50;11.70;99.90
70986;DHT22;58645;43.068;25.610;2023-04-15T04:43:16;11.90;99.90
70986;DHT22;58645;43.068;25.610;2023-04-15T04:45:41;12.00;99.90
70986;DHT22;58645;43.068;25.610;2023-04-15T04:48:07;12.00;99.90
70986;DHT22;58645;43.068;25.610;2023-04-15T04:50:34;12.00;99.90
70986;DHT22;58645;43.068;25.610;2023-04-15T04:53:01;12.10;99.90
70986;DHT22;58645;43.068;25.610;2023-04-15T04:55:27;12.20;99.90
70986;DHT22;58645;43.068;25.610;2023-04-15T04:57:52;12.30;99.90
70986;DHT22;58645;43.068;25.610;2023-04-15T05:00:18;12.50;99.90
70986;DHT22;58645;43.068;25.610;2023-04-15T05:02:45;12.60;99.90
70986;DHT22;58645;43.068;25.610;2023-04-15T05:05:11;12.70;99.90
70986;DHT22;58645;43.068;25.610;2023-04-15T05:07:37;12.80;99.90
70986;DHT22;58645;43.068;25.610;2023-04-15T05:10:04;12.80;99.90
70986;DHT22;58645;43.068;25.610;2023-04-15T05:12:30;12.60;99.90
70986;DHT22;58645;43.068;25.610;2023-04-15T05:14:56;12.60;99.90
70986;DHT22;58645;43.068;25.610;2023-04-15T05:17:22;12.70;99.90
70986;DHT22;58645;43.068;25.610;2023-04-15T05:19:48;12.60;99.90
70986;DHT22;58645;43.068;25.610;2023-04-15T05:22:14;12.60;99.90
70986;DHT22;58645;43.068;25.610;2023-04-15T05:24:40;12.70;99.90
70986;DHT22;58645;43.068;25.610;2023-04-15T05:27:05;12.80;99.90
70986;DHT22;58645;43.068;25.610;2023-04-15T05:29:33;12.90;99.90
70986;DHT22;58645;43.068;25.610;2023-04-15T05:31:59;13.10;99.90
70986;DHT22;58645;43.068;25.610;2023-04-15T05:34:25;14.00;99.90
70986;DHT22;58645;43.068;25.610;2023-04-15T05:36:51;14.00;99.90
70986;DHT22;58645;43.068;25.610;2023-04-15T05:39:17;14.00;99.90
70986;DHT22;58645;43.068;25.610;2023-04-15T05:41:43;14.10;99.90
70986;DHT22;58645;43.068;25.610;2023-04-15T05:44:09;14.10;99.90
70986;DHT22;58645;43.068;25.610;2023-04-15T05:46:34;14.10;99.90
70986;DHT22;58645;43.068;25.610;2023-04-15T05:49:00;14.20;99.90
70986;DHT22;58645;43.068;25.610;2023-04-15T05:51:26;14.20;99.90
70986;DHT22;58645;43.068;25.610;2023-04-15T05:53:52;14.30;99.90
70986;DHT22;58645;43.068;25.610;2023-04-15T05:56:17;14.50;99.90
70986;DHT22;58645;43.068;25.610;2023-04-15T05:58:45;16.00;99.90
70986;DHT22;58645;43.068;25.610;2023-04-15T06:01:10;17.30;99.90
70986;DHT22;58645;43.068;25.610;2023-04-15T06:03:37;18.10;98.80
70986;DHT22;58645;43.068;25.610;2023-04-15T06:06:03;17.70;94.50
70986;DHT22;58645;43.068;25.610;2023-04-15T06:08:29;18.30;91.20
70986;DHT22;58645;43.068;25.610;2023-04-15T06:10:55;19.20;83.40
70986;DHT22;58645;43.068;25.610;2023-04-15T06:13:21;20.00;78.20
70986;DHT22;58645;43.068;25.610;2023-04-15T06:15:46;20.70;74.40
70986;DHT22;58645;43.068;25.610;2023-04-15T06:18:12;21.20;70.70
70986;DHT22;58645;43.068;25.610;2023-04-15T06:20:38;21.70;63.50
70986;DHT22;58645;43.068;25.610;2023-04-15T06:23:04;22.30;59.10
70986;DHT22;58645;43.068;25.610;2023-04-15T06:25:30;22.00;58.00
70986;DHT22;58645;43.068;25.610;2023-04-15T06:27:56;22.60;55.80
70986;DHT22;58645;43.068;25.610;2023-04-15T06:30:21;23.10;54.90
70986;DHT22;58645;43.068;25.610;2023-04-15T06:32:47;23.60;52.40
70986;DHT22;58645;43.068;25.610;2023-04-15T06:35:13;23.20;49.10
70986;DHT22;58645;43.068;25.610;2023-04-15T06:37:38;23.70;49.10
70986;DHT22;58645;43.068;25.610;2023-04-15T06:40:04;23.40;49.20
70986;DHT22;58645;43.068;25.610;2023-04-15T06:42:30;23.90;46.90
70986;DHT22;58645;43.068;25.610;2023-04-15T06:44:56;23.90;46.60
70986;DHT22;58645;43.068;25.610;2023-04-15T06:47:21;24.00;46.00
70986;DHT22;58645;43.068;25.610;2023-04-15T06:49:47;24.20;44.40
70986;DHT22;58645;43.068;25.610;2023-04-15T06:52:13;24.30;43.10
70986;DHT22;58645;43.068;25.610;2023-04-15T06:54:38;23.90;42.70
70986;DHT22;58645;43.068;25.610;2023-04-15T06:57:04;23.60;43.00
70986;DHT22;58645;43.068;25.610;2023-04-15T06:59:30;23.90;42.20
70986;DHT22;58645;43.068;25.610;2023-04-15T07:01:56;24.50;43.90
70986;DHT22;58645;43.068;25.610;2023-04-15T07:04:21;24.90;43.10
70986;DHT22;58645;43.068;25.610;2023-04-15T07:06:47;25.20;40.20
70986;DHT22;58645;43.068;25.610;2023-04-15T07:09:13;24.80;40.70
70986;DHT22;58645;43.068;25.610;2023-04-15T07:11:38;24.30;41.30
70986;DHT22;58645;43.068;25.610;2023-04-15T07:14:04;25.00;42.40
70986;DHT22;58645;43.068;25.610;2023-04-15T07:16:31;25.00;39.10
70986;DHT22;58645;43.068;25.610;2023-04-15T07:18:56;24.90;40.30
70986;DHT22;58645;43.068;25.610;2023-04-15T07:21:23;25.20;40.60
70986;DHT22;58645;43.068;25.610;2023-04-15T07:23:49;25.90;38.10
70986;DHT22;58645;43.068;25.610;2023-04-15T07:26:15;26.40;37.80
70986;DHT22;58645;43.068;25.610;2023-04-15T07:28:41;26.80;33.50
70986;DHT22;58645;43.068;25.610;2023-04-15T07:31:06;26.90;33.30
70986;DHT22;58645;43.068;25.610;2023-04-15T07:33:32;26.50;32.30
70986;DHT22;58645;43.068;25.610;2023-04-15T07:35:58;26.50;33.90
70986;DHT22;58645;43.068;25.610;2023-04-15T07:38:23;26.60;31.00
70986;DHT22;58645;43.068;25.610;2023-04-15T07:40:49;26.50;32.00
70986;DHT22;58645;43.068;25.610;2023-04-15T07:43:15;26.80;31.80
70986;DHT22;58645;43.068;25.610;2023-04-15T07:45:41;27.40;30.60
70986;DHT22;58645;43.068;25.610;2023-04-15T07:48:06;28.10;29.70
70986;DHT22;58645;43.068;25.610;2023-04-15T07:50:32;28.40;30.60
70986;DHT22;58645;43.068;25.610;2023-04-15T07:52:58;28.60;31.30
70986;DHT22;58645;43.068;25.610;2023-04-15T07:55:24;28.80;27.60
70986;DHT22;58645;43.068;25.610;2023-04-15T07:57:50;28.60;27.40
70986;DHT22;58645;43.068;25.610;2023-04-15T08:00:16;28.10;26.40
70986;DHT22;58645;43.068;25.610;2023-04-15T08:02:42;28.20;28.00
70986;DHT22;58645;43.068;25.610;2023-04-15T08:05:08;28.10;27.50
70986;DHT22;58645;43.068;25.610;2023-04-15T08:07:36;28.30;26.70
70986;DHT22;58645;43.068;25.610;2023-04-15T08:10:03;28.90;25.90
70986;DHT22;58645;43.068;25.610;2023-04-15T08:12:29;29.10;26.30
70986;DHT22;58645;43.068;25.610;2023-04-15T08:14:55;29.30;26.60
70986;DHT22;58645;43.068;25.610;2023-04-15T08:17:22;28.60;24.30
70986;DHT22;58645;43.068;25.610;2023-04-15T08:19:48;28.90;26.30
70986;DHT22;58645;43.068;25.610;2023-04-15T08:22:14;29.00;25.80
70986;DHT22;58645;43.068;25.610;2023-04-15T08:24:40;29.30;27.80
70986;DHT22;58645;43.068;25.610;2023-04-15T08:27:05;29.60;25.90
70986;DHT22;58645;43.068;25.610;2023-04-15T08:29:32;29.00;25.90
70986;DHT22;58645;43.068;25.610;2023-04-15T08:31:59;29.40;24.60
70986;DHT22;58645;43.068;25.610;2023-04-15T08:34:28;29.50;24.30
70986;DHT22;58645;43.068;25.610;2023-04-15T08:36:54;29.60;25.80
70986;DHT22;58645;43.068;25.610;2023-04-15T08:39:21;29.30;22.40
70986;DHT22;58645;43.068;25.610;2023-04-15T08:44:13;29.60;23.80
70986;DHT22;58645;43.068;25.610;2023-04-15T08:46:41;29.50;24.80
70986;DHT22;58645;43.068;25.610;2023-04-15T08:49:11;29.20;23.80
70986;DHT22;58645;43.068;25.610;2023-04-15T08:51:39;29.50;24.00
70986;DHT22;58645;43.068;25.610;2023-04-15T08:54:05;29.70;23.20
70986;DHT22;58645;43.068;25.610;2023-04-15T08:56:32;29.80;22.70
70986;DHT22;58645;43.068;25.610;2023-04-15T08:58:58;29.50;23.60
70986;DHT22;58645;43.068;25.610;2023-04-15T09:01:25;29.20;25.00
70986;DHT22;58645;43.068;25.610;2023-04-15T09:03:51;27.90;25.60
70986;DHT22;58645;43.068;25.610;2023-04-15T09:06:19;27.60;27.80
70986;DHT22;58645;43.068;25.610;2023-04-15T09:08:45;27.30;26.80
70986;DHT22;58645;43.068;25.610;2023-04-15T09:11:12;26.70;27.60
70986;DHT22;58645;43.068;25.610;2023-04-15T09:13:38;26.30;30.00
70986;DHT22;58645;43.068;25.610;2023-04-15T09:16:06;27.00;29.50
70986;DHT22;58645;43.068;25.610;2023-04-15T09:18:34;27.60;29.50
70986;DHT22;58645;43.068;25.610;2023-04-15T09:21:08;28.10;29.30
70986;DHT22;58645;43.068;25.610;2023-04-15T09:23:40;28.70;27.60
70986;DHT22;58645;43.068;25.610;2023-04-15T09:26:18;29.10;28.40
70986;DHT22;58645;43.068;25.610;2023-04-15T09:28:44;29.50;25.30
70986;DHT22;58645;43.068;25.610;2023-04-15T09:31:10;29.80;27.10
70986;DHT22;58645;43.068;25.610;2023-04-15T09:33:53;29.70;27.20
70986;DHT22;58645;43.068;25.610;2023-04-15T09:36:20;29.70;26.20
70986;DHT22;58645;43.068;25.610;2023-04-15T09:38:56;29.60;27.70
70986;DHT22;58645;43.068;25.610;2023-04-15T09:41:23;29.90;26.10
70986;DHT22;58645;43.068;25.610;2023-04-15T09:43:49;30.20;26.60
70986;DHT22;58645;43.068;25.610;2023-04-15T09:46:15;30.40;26.10
70986;DHT22;58645;43.068;25.610;2023-04-15T09:48:41;30.10;25.00
70986;DHT22;58645;43.068;25.610;2023-04-15T09:51:07;30.10;26.50
70986;DHT22;58645;43.068;25.610;2023-04-15T09:53:35;29.80;26.20
70986;DHT22;58645;43.068;25.610;2023-04-15T09:56:01;29.50;25.60
70986;DHT22;58645;43.068;25.610;2023-04-15T09:58:29;28.90;26.10
70986;DHT22;58645;43.068;25.610;2023-04-15T10:00:56;28.80;26.70
70986;DHT22;58645;43.068;25.610;2023-04-15T10:03:24;28.80;27.60
70986;DHT22;58645;43.068;25.610;2023-04-15T10:05:51;29.00;26.90
70986;DHT22;58645;43.068;25.610;2023-04-15T10:08:19;28.90;26.00
70986;DHT22;58645;43.068;25.610;2023-04-15T10:10:46;28.90;26.60
70986;DHT22;58645;43.068;25.610;2023-04-15T10:13:22;29.20;26.50
70986;DHT22;58645;43.068;25.610;2023-04-15T10:15:51;29.70;26.50
70986;DHT22;58645;43.068;25.610;2023-04-15T10:18:19;29.70;26.20
70986;DHT22;58645;43.068;25.610;2023-04-15T10:20:48;30.30;26.60
70986;DHT22;58645;43.068;25.610;2023-04-15T10:23:15;30.40;25.70
70986;DHT22;58645;43.068;25.610;2023-04-15T10:25:42;30.10;25.70
70986;DHT22;58645;43.068;25.610;2023-04-15T10:28:08;29.70;26.80
70986;DHT22;58645;43.068;25.610;2023-04-15T10:30:35;30.10;26.80
70986;DHT22;58645;43.068;25.610;2023-04-15T10:33:02;30.00;25.60
70986;DHT22;58645;43.068;25.610;2023-04-15T10:35:30;30.10;24.30
70986;DHT22;58645;43.068;25.610;2023-04-15T10:37:56;29.80;24.80
70986;DHT22;58645;43.068;25.610;2023-04-15T10:40:31;29.30;24.60
70986;DHT22;58645;43.068;25.610;2023-04-15T10:43:01;29.30;26.50
70986;DHT22;58645;43.068;25.610;2023-04-15T10:45:37;28.80;27.10
70986;DHT22;58645;43.068;25.610;2023-04-15T10:48:06;29.10;26.60
70986;DHT22;58645;43.068;25.610;2023-04-15T10:50:32;29.80;26.90
70986;DHT22;58645;43.068;25.610;2023-04-15T10:52:58;29.30;26.80
70986;DHT22;58645;43.068;25.610;2023-04-15T10:55:31;29.20;28.00
70986;DHT22;58645;43.068;25.610;2023-04-15T10:57:58;28.70;27.80
70986;DHT22;58645;43.068;25.610;2023-04-15T11:00:29;28.30;28.70
70986;DHT22;58645;43.068;25.610;2023-04-15T11:03:07;27.70;28.20
70986;DHT22;58645;43.068;25.610;2023-04-15T11:08:08;26.70;30.20
70986;DHT22;58645;43.068;25.610;2023-04-15T11:13:16;26.90;30.90
70986;DHT22;58645;43.068;25.610;2023-04-15T11:15:42;27.20;29.80
70986;DHT22;58645;43.068;25.610;2023-04-15T11:18:13;27.00;31.30
70986;DHT22;58645;43.068;25.610;2023-04-15T11:20:44;27.20;30.80
70986;DHT22;58645;43.068;25.610;2023-04-15T11:23:10;27.50;28.70
70986;DHT22;58645;43.068;25.610;2023-04-15T11:25:36;27.40;29.60
70986;DHT22;58645;43.068;25.610;2023-04-15T11:28:03;27.60;29.70
70986;DHT22;58645;43.068;25.610;2023-04-15T11:30:34;27.90;28.70
70986;DHT22;58645;43.068;25.610;2023-04-15T11:33:05;28.50;28.60
70986;DHT22;58645;43.068;25.610;2023-04-15T11:35:31;28.60;29.40
70986;DHT22;58645;43.068;25.610;2023-04-15T11:37:57;28.40;28.70
70986;DHT22;58645;43.068;25.610;2023-04-15T11:40:27;27.90;28.20
70986;DHT22;58645;43.068;25.610;2023-04-15T11:43:22;27.40;30.00
70986;DHT22;58645;43.068;25.610;2023-04-15T11:45:56;27.50;30.50
70986;DHT22;58645;43.068;25.610;2023-04-15T11:48:27;26.80;29.50
70986;DHT22;58645;43.068;25.610;2023-04-15T11:50:58;26.40;31.70
70986;DHT22;58645;43.068;25.610;2023-04-15T11:53:41;25.80;31.00
70986;DHT22;58645;43.068;25.610;2023-04-15T11:58:41;26.30;32.50
70986;DHT22;58645;43.068;25.610;2023-04-15T12:01:07;26.90;31.60
70986;DHT22;58645;43.068;25.610;2023-04-15T12:03:38;27.00;31.30
70986;DHT22;58645;43.068;25.610;2023-04-15T12:06:16;26.60;29.70
70986;DHT22;58645;43.068;25.610;2023-04-15T12:11:46;26.30;30.60
70986;DHT22;58645;43.068;25.610;2023-04-15T12:14:26;26.30;31.00
70986;DHT22;58645;43.068;25.610;2023-04-15T12:17:02;26.40;29.80
70986;DHT22;58645;43.068;25.610;2023-04-15T12:19:36;26.30;29.80
70986;DHT22;58645;43.068;25.610;2023-04-15T12:22:11;26.40;30.10
70986;DHT22;58645;43.068;25.610;2023-04-15T12:24:38;26.50;29.90
70986;DHT22;58645;43.068;25.610;2023-04-15T12:27:11;26.10;30.40
70986;DHT22;58645;43.068;25.610;2023-04-15T12:29:39;25.70;30.80
70986;DHT22;58645;43.068;25.610;2023-04-15T12:32:12;25.30;31.70
70986;DHT22;58645;43.068;25.610;2023-04-15T12:34:39;25.00;32.90
70986;DHT22;58645;43.068;25.610;2023-04-15T12:37:07;24.60;32.70
70986;DHT22;58645;43.068;25.610;2023-04-15T12:39:38;24.50;33.10
70986;DHT22;58645;43.068;25.610;2023-04-15T12:42:05;24.80;33.90
70986;DHT22;58645;43.068;25.610;2023-04-15T12:44:31;24.90;32.20
70986;DHT22;58645;43.068;25.610;2023-04-15T12:46:58;25.40;31.60
70986;DHT22;58645;43.068;25.610;2023-04-15T12:49:25;25.70;30.00
70986;DHT22;58645;43.068;25.610;2023-04-15T12:51:55;26.00;30.70
70986;DHT22;58645;43.068;25.610;2023-04-15T12:54:22;26.40;30.00
70986;DHT22;58645;43.068;25.610;2023-04-15T12:56:49;26.70;30.30
70986;DHT22;58645;43.068;25.610;2023-04-15T12:59:15;26.40;30.30
70986;DHT22;58645;43.068;25.610;2023-04-15T13:01:46;26.40;31.10
70986;DHT22;58645;43.068;25.610;2023-04-15T13:04:12;26.40;31.10
70986;DHT22;58645;43.068;25.610;2023-04-15T13:06:38;26.00;33.00
70986;DHT22;58645;43.068;25.610;2023-04-15T13:09:04;25.50;32.30
70986;DHT22;58645;43.068;25.610;2023-04-15T13:11:30;25.40;33.50
70986;DHT22;58645;43.068;25.610;2023-04-15T13:14:02;24.90;34.00
70986;DHT22;58645;43.068;25.610;2023-04-15T13:16:28;24.50;33.80
70986;DHT22;58645;43.068;25.610;2023-04-15T13:18:54;24.20;35.50
70986;DHT22;58645;43.068;25.610;2023-04-15T13:21:20;24.00;34.90
70986;DHT22;58645;43.068;25.610;2023-04-15T13:23:47;23.90;35.30
70986;DHT22;58645;43.068;25.610;2023-04-15T13:26:14;23.80;35.90
70986;DHT22;58645;43.068;25.610;2023-04-15T13:28:39;23.70;35.80
70986;DHT22;58645;43.068;25.610;2023-04-15T13:31:05;23.50;36.50
70986;DHT22;58645;43.068;25.610;2023-04-15T13:33:31;23.20;35.90
70986;DHT22;58645;43.068;25.610;2023-04-15T13:35:56;23.10;37.00
70986;DHT22;58645;43.068;25.610;2023-04-15T13:38:23;23.20;37.00
70986;DHT22;58645;43.068;25.610;2023-04-15T13:40:49;23.00;36.30
70986;DHT22;58645;43.068;25.610;2023-04-15T13:43:14;23.00;36.70
70986;DHT22;58645;43.068;25.610;2023-04-15T13:45:40;23.00;36.70
70986;DHT22;58645;43.068;25.610;2023-04-15T13:48:06;22.90;37.20
70986;DHT22;58645;43.068;25.610;2023-04-15T13:50:31;22.80;37.20
70986;DHT22;58645;43.068;25.610;2023-04-15T13:52:57;22.60;37.10
70986;DHT22;58645;43.068;25.610;2023-04-15T13:55:23;22.50;37.70
70986;DHT22;58645;43.068;25.610;2023-04-15T13:57:48;22.60;37.60
70986;DHT22;58645;43.068;25.610;2023-04-15T14:00:15;22.50;38.00
70986;DHT22;58645;43.068;25.610;2023-04-15T14:02:40;22.20;37.70
70986;DHT22;58645;43.068;25.610;2023-04-15T14:05:07;22.30;38.20
70986;DHT22;58645;43.068;25.610;2023-04-15T14:07:33;22.30;37.80
70986;DHT22;58645;43.068;25.610;2023-04-15T14:09:59;22.10;38.60
70986;DHT22;58645;43.068;25.610;2023-04-15T14:12:24;22.10;39.20
70986;DHT22;58645;43.068;25.610;2023-04-15T14:14:50;22.10;39.80
70986;DHT22;58645;43.068;25.610;2023-04-15T14:17:16;22.10;40.20
70986;DHT22;58645;43.068;25.610;2023-04-15T14:19:42;22.20;40.60
70986;DHT22;58645;43.068;25.610;2023-04-15T14:22:07;22.10;40.00
70986;DHT22;58645;43.068;25.610;2023-04-15T14:24:33;22.00;40.00
70986;DHT22;58645;43.068;25.610;2023-04-15T14:26:59;22.00;40.30
70986;DHT22;58645;43.068;25.610;2023-04-15T14:29:24;22.00;40.40
70986;DHT22;58645;43.068;25.610;2023-04-15T14:31:50;22.00;40.40
70986;DHT22;58645;43.068;25.610;2023-04-15T14:34:16;22.00;39.90
70986;DHT22;58645;43.068;25.610;2023-04-15T14:36:42;22.00;40.20
70986;DHT22;58645;43.068;25.610;2023-04-15T14:39:09;21.80;40.00
70986;DHT22;58645;43.068;25.610;2023-04-15T14:41:35;21.70;40.10
70986;DHT22;58645;43.068;25.610;2023-04-15T14:44:02;21.60;40.70
70986;DHT22;58645;43.068;25.610;2023-04-15T14:46:27;21.50;41.00
70986;DHT22;58645;43.068;25.610;2023-04-15T14:48:53;21.30;41.40
70986;DHT22;58645;43.068;25.610;2023-04-15T14:51:19;21.10;42.00
70986;DHT22;58645;43.068;25.610;2023-04-15T14:53:45;21.00;42.70
70986;DHT22;58645;43.068;25.610;2023-04-15T14:56:11;21.00;44.00
70986;DHT22;58645;43.068;25.610;2023-04-15T14:58:36;21.00;43.70
70986;DHT22;58645;43.068;25.610;2023-04-15T15:01:03;20.90;44.00
70986;DHT22;58645;43.068;25.610;2023-04-15T15:03:29;20.80;44.20
70986;DHT22;58645;43.068;25.610;2023-04-15T15:05:55;20.60;44.20
70986;DHT22;58645;43.068;25.610;2023-04-15T15:08:22;20.60;45.80
70986;DHT22;58645;43.068;25.610;2023-04-15T15:10:48;20.60;46.50
70986;DHT22;58645;43.068;25.610;2023-04-15T15:13:14;20.50;46.40
70986;DHT22;58645;43.068;25.610;2023-04-15T15:15:40;20.40;46.60
70986;DHT22;58645;43.068;25.610;2023-04-15T15:18:06;20.30;45.70
70986;DHT22;58645;43.068;25.610;2023-04-15T15:20:32;20.20;45.70
70986;DHT22;58645;43.068;25.610;2023-04-15T15:22:59;20.20;45.80
70986;DHT22;58645;43.068;25.610;2023-04-15T15:25:26;20.20;45.70